Macia, Argentina
Current Conditions -  °F | °C
As of 2:00 AM on Saturday 20 Dec 2014 (Local Time) from SAAR Reporting Station
Clear Clear  
Wind Chill: 77°   Ceiling: Unl
Heat Index: 79°   Visibility: 6mi
Dew Point: 66°   Wind: 9mph
Humidity: 69%   Direction: 360°N
Pressure: 29.5"   Gusts: NA
Location:  32.17°S, 59.38°W
Report Text: SAAR 200500Z 36008KT CAVOK 25/19 Q0999
Loading
Personal Weather Stations






























Interactive Weather Map New forecast layout! Learn more

10-Day Weather Forecast

Advertisements
Track Severe Weather on mobile